sensor_id;sensor_type;location;lat;lon;timestamp;P1;durP1;ratioP1;P2;durP2;ratioP2
69057;SDS011;56128;37.534;-122.308;2024-02-21T00:01:07;2.95;;;0.90;;
69057;SDS011;56128;37.534;-122.308;2024-02-21T00:03:33;2.50;;;1.00;;
69057;SDS011;56128;37.534;-122.308;2024-02-21T00:05:59;3.08;;;0.80;;
69057;SDS011;56128;37.534;-122.308;2024-02-21T00:08:25;2.75;;;0.90;;
69057;SDS011;56128;37.534;-122.308;2024-02-21T00:10:52;3.42;;;1.08;;
69057;SDS011;56128;37.534;-122.308;2024-02-21T00:13:18;3.50;;;1.10;;
69057;SDS011;56128;37.534;-122.308;2024-02-21T00:15:44;1.92;;;0.98;;
69057;SDS011;56128;37.534;-122.308;2024-02-21T00:18:10;3.28;;;1.10;;
69057;SDS011;56128;37.534;-122.308;2024-02-21T00:20:36;2.78;;;0.82;;
69057;SDS011;56128;37.534;-122.308;2024-02-21T00:23:02;3.25;;;1.05;;
69057;SDS011;56128;37.534;-122.308;2024-02-21T00:25:28;2.70;;;1.25;;
69057;SDS011;56128;37.534;-122.308;2024-02-21T00:27:55;3.65;;;1.38;;
69057;SDS011;56128;37.534;-122.308;2024-02-21T00:30:21;2.63;;;0.88;;
69057;SDS011;56128;37.534;-122.308;2024-02-21T00:32:47;3.72;;;1.20;;
69057;SDS011;56128;37.534;-122.308;2024-02-21T00:35:13;3.55;;;1.38;;
69057;SDS011;56128;37.534;-122.308;2024-02-21T00:37:40;3.03;;;1.08;;
69057;SDS011;56128;37.534;-122.308;2024-02-21T00:40:09;3.05;;;1.00;;
69057;SDS011;56128;37.534;-122.308;2024-02-21T00:42:35;3.35;;;0.95;;
69057;SDS011;56128;37.534;-122.308;2024-02-21T00:45:02;3.65;;;0.80;;
69057;SDS011;56128;37.534;-122.308;2024-02-21T00:47:28;1.90;;;0.70;;
69057;SDS011;56128;37.534;-122.308;2024-02-21T00:49:54;3.45;;;0.85;;
69057;SDS011;56128;37.534;-122.308;2024-02-21T00:52:21;2.45;;;0.90;;
69057;SDS011;56128;37.534;-122.308;2024-02-21T00:54:47;3.30;;;0.95;;
69057;SDS011;56128;37.534;-122.308;2024-02-21T00:57:14;3.45;;;1.10;;
69057;SDS011;56128;37.534;-122.308;2024-02-21T00:59:40;7.03;;;1.40;;
69057;SDS011;56128;37.534;-122.308;2024-02-21T01:02:07;3.17;;;1.10;;
69057;SDS011;56128;37.534;-122.308;2024-02-21T01:04:34;4.90;;;1.30;;
69057;SDS011;56128;37.534;-122.308;2024-02-21T01:07:00;4.60;;;1.05;;
69057;SDS011;56128;37.534;-122.308;2024-02-21T01:09:26;4.43;;;1.10;;
69057;SDS011;56128;37.534;-122.308;2024-02-21T01:11:53;3.08;;;1.00;;
69057;SDS011;56128;37.534;-122.308;2024-02-21T01:14:19;3.40;;;1.10;;
69057;SDS011;56128;37.534;-122.308;2024-02-21T01:16:45;4.88;;;1.83;;
69057;SDS011;56128;37.534;-122.308;2024-02-21T01:19:11;4.40;;;1.50;;
69057;SDS011;56128;37.534;-122.308;2024-02-21T01:21:37;5.47;;;1.35;;
69057;SDS011;56128;37.534;-122.308;2024-02-21T01:24:03;6.78;;;1.50;;
69057;SDS011;56128;37.534;-122.308;2024-02-21T01:26:30;8.85;;;1.38;;
69057;SDS011;56128;37.534;-122.308;2024-02-21T01:28:56;5.22;;;1.27;;
69057;SDS011;56128;37.534;-122.308;2024-02-21T01:31:22;4.97;;;1.60;;
69057;SDS011;56128;37.534;-122.308;2024-02-21T01:33:48;4.88;;;1.15;;
69057;SDS011;56128;37.534;-122.308;2024-02-21T01:36:14;8.13;;;1.50;;
69057;SDS011;56128;37.534;-122.308;2024-02-21T01:38:41;6.28;;;1.30;;
69057;SDS011;56128;37.534;-122.308;2024-02-21T01:41:07;8.68;;;1.33;;
69057;SDS011;56128;37.534;-122.308;2024-02-21T01:43:33;5.20;;;1.48;;
69057;SDS011;56128;37.534;-122.308;2024-02-21T01:45:59;4.82;;;1.65;;
69057;SDS011;56128;37.534;-122.308;2024-02-21T01:48:25;7.10;;;1.50;;
69057;SDS011;56128;37.534;-122.308;2024-02-21T01:50:53;9.43;;;1.70;;
69057;SDS011;56128;37.534;-122.308;2024-02-21T01:53:23;4.22;;;1.00;;
69057;SDS011;56128;37.534;-122.308;2024-02-21T01:55:54;6.47;;;1.40;;
69057;SDS011;56128;37.534;-122.308;2024-02-21T01:58:21;4.07;;;1.30;;
69057;SDS011;56128;37.534;-122.308;2024-02-21T02:00:48;5.90;;;1.52;;
69057;SDS011;56128;37.534;-122.308;2024-02-21T02:03:15;4.18;;;1.45;;
69057;SDS011;56128;37.534;-122.308;2024-02-21T02:05:51;5.70;;;1.20;;
69057;SDS011;56128;37.534;-122.308;2024-02-21T02:08:18;5.97;;;1.42;;
69057;SDS011;56128;37.534;-122.308;2024-02-21T02:10:45;3.22;;;1.23;;
69057;SDS011;56128;37.534;-122.308;2024-02-21T02:13:11;6.35;;;1.45;;
69057;SDS011;56128;37.534;-122.308;2024-02-21T02:15:44;7.80;;;1.45;;
69057;SDS011;56128;37.534;-122.308;2024-02-21T02:18:11;4.88;;;1.35;;
69057;SDS011;56128;37.534;-122.308;2024-02-21T02:20:39;3.88;;;1.40;;
69057;SDS011;56128;37.534;-122.308;2024-02-21T02:25:35;5.32;;;1.77;;
69057;SDS011;56128;37.534;-122.308;2024-02-21T02:28:02;5.22;;;1.75;;
69057;SDS011;56128;37.534;-122.308;2024-02-21T02:30:33;8.60;;;2.17;;
69057;SDS011;56128;37.534;-122.308;2024-02-21T02:33:03;6.57;;;1.67;;
69057;SDS011;56128;37.534;-122.308;2024-02-21T02:35:30;6.70;;;1.40;;
69057;SDS011;56128;37.534;-122.308;2024-02-21T02:37:57;5.03;;;1.73;;
69057;SDS011;56128;37.534;-122.308;2024-02-21T02:40:23;5.43;;;1.83;;
69057;SDS011;56128;37.534;-122.308;2024-02-21T02:42:50;9.98;;;2.13;;
69057;SDS011;56128;37.534;-122.308;2024-02-21T02:45:20;7.90;;;1.77;;
69057;SDS011;56128;37.534;-122.308;2024-02-21T02:47:52;5.72;;;1.83;;
69057;SDS011;56128;37.534;-122.308;2024-02-21T02:50:22;9.00;;;2.17;;
69057;SDS011;56128;37.534;-122.308;2024-02-21T02:52:49;6.40;;;1.90;;
69057;SDS011;56128;37.534;-122.308;2024-02-21T02:55:15;6.93;;;2.00;;
69057;SDS011;56128;37.534;-122.308;2024-02-21T02:57:42;6.10;;;2.22;;
69057;SDS011;56128;37.534;-122.308;2024-02-21T03:00:09;9.02;;;2.63;;
69057;SDS011;56128;37.534;-122.308;2024-02-21T03:02:37;10.40;;;3.22;;
69057;SDS011;56128;37.534;-122.308;2024-02-21T03:05:26;8.52;;;2.80;;
69057;SDS011;56128;37.534;-122.308;2024-02-21T03:07:51;8.10;;;2.40;;
69057;SDS011;56128;37.534;-122.308;2024-02-21T03:10:17;12.98;;;3.13;;
69057;SDS011;56128;37.534;-122.308;2024-02-21T03:12:43;6.53;;;2.58;;
69057;SDS011;56128;37.534;-122.308;2024-02-21T03:15:10;7.90;;;3.05;;
69057;SDS011;56128;37.534;-122.308;2024-02-21T03:17:37;9.05;;;2.55;;
69057;SDS011;56128;37.534;-122.308;2024-02-21T03:20:03;10.23;;;3.25;;
69057;SDS011;56128;37.534;-122.308;2024-02-21T03:22:31;12.63;;;4.00;;
69057;SDS011;56128;37.534;-122.308;2024-02-21T03:24:58;12.68;;;3.50;;
69057;SDS011;56128;37.534;-122.308;2024-02-21T03:27:24;12.40;;;3.38;;
69057;SDS011;56128;37.534;-122.308;2024-02-21T03:29:50;10.02;;;4.20;;
69057;SDS011;56128;37.534;-122.308;2024-02-21T03:32:16;10.38;;;4.60;;
69057;SDS011;56128;37.534;-122.308;2024-02-21T03:34:42;11.80;;;4.35;;
69057;SDS011;56128;37.534;-122.308;2024-02-21T03:37:08;13.52;;;4.90;;
69057;SDS011;56128;37.534;-122.308;2024-02-21T03:39:35;8.65;;;4.40;;
69057;SDS011;56128;37.534;-122.308;2024-02-21T03:42:02;15.02;;;5.07;;
69057;SDS011;56128;37.534;-122.308;2024-02-21T03:44:30;13.43;;;5.28;;
69057;SDS011;56128;37.534;-122.308;2024-02-21T03:46:57;12.85;;;5.85;;
69057;SDS011;56128;37.534;-122.308;2024-02-21T03:49:24;13.65;;;6.70;;
69057;SDS011;56128;37.534;-122.308;2024-02-21T03:51:50;15.93;;;7.00;;
69057;SDS011;56128;37.534;-122.308;2024-02-21T03:54:16;18.27;;;8.40;;
69057;SDS011;56128;37.534;-122.308;2024-02-21T03:56:42;13.15;;;8.60;;
69057;SDS011;56128;37.534;-122.308;2024-02-21T03:59:09;15.18;;;7.28;;
69057;SDS011;56128;37.534;-122.308;2024-02-21T04:01:35;15.82;;;7.65;;
69057;SDS011;56128;37.534;-122.308;2024-02-21T04:04:01;17.05;;;8.05;;
69057;SDS011;56128;37.534;-122.308;2024-02-21T04:06:28;18.02;;;7.85;;
69057;SDS011;56128;37.534;-122.308;2024-02-21T04:08:54;18.13;;;7.40;;
69057;SDS011;56128;37.534;-122.308;2024-02-21T04:11:20;17.05;;;7.90;;
69057;SDS011;56128;37.534;-122.308;2024-02-21T04:13:47;14.25;;;8.07;;
69057;SDS011;56128;37.534;-122.308;2024-02-21T04:16:15;17.08;;;8.45;;
69057;SDS011;56128;37.534;-122.308;2024-02-21T04:18:42;21.15;;;9.10;;
69057;SDS011;56128;37.534;-122.308;2024-02-21T04:21:08;20.40;;;9.30;;
69057;SDS011;56128;37.534;-122.308;2024-02-21T04:23:35;19.35;;;8.77;;
69057;SDS011;56128;37.534;-122.308;2024-02-21T04:26:01;24.98;;;9.77;;
69057;SDS011;56128;37.534;-122.308;2024-02-21T04:28:27;20.27;;;8.73;;
69057;SDS011;56128;37.534;-122.308;2024-02-21T04:30:53;28.17;;;8.93;;
69057;SDS011;56128;37.534;-122.308;2024-02-21T04:33:20;21.83;;;8.65;;
69057;SDS011;56128;37.534;-122.308;2024-02-21T04:35:46;23.15;;;8.13;;
69057;SDS011;56128;37.534;-122.308;2024-02-21T04:38:12;21.35;;;7.63;;
69057;SDS011;56128;37.534;-122.308;2024-02-21T04:40:40;23.95;;;9.50;;
69057;SDS011;56128;37.534;-122.308;2024-02-21T04:43:06;17.33;;;7.85;;
69057;SDS011;56128;37.534;-122.308;2024-02-21T04:45:32;22.95;;;7.70;;
69057;SDS011;56128;37.534;-122.308;2024-02-21T04:47:58;22.77;;;8.80;;
69057;SDS011;56128;37.534;-122.308;2024-02-21T04:50:24;21.20;;;7.68;;
69057;SDS011;56128;37.534;-122.308;2024-02-21T04:52:50;24.25;;;7.90;;
69057;SDS011;56128;37.534;-122.308;2024-02-21T04:55:17;24.90;;;7.80;;
69057;SDS011;56128;37.534;-122.308;2024-02-21T04:57:43;17.95;;;7.53;;
69057;SDS011;56128;37.534;-122.308;2024-02-21T05:00:09;23.65;;;7.82;;
69057;SDS011;56128;37.534;-122.308;2024-02-21T05:02:36;24.52;;;8.23;;
69057;SDS011;56128;37.534;-122.308;2024-02-21T05:05:02;23.27;;;7.50;;
69057;SDS011;56128;37.534;-122.308;2024-02-21T05:07:28;20.90;;;7.60;;
69057;SDS011;56128;37.534;-122.308;2024-02-21T05:09:54;25.00;;;8.40;;
69057;SDS011;56128;37.534;-122.308;2024-02-21T05:12:20;24.70;;;8.30;;
69057;SDS011;56128;37.534;-122.308;2024-02-21T05:14:46;20.88;;;7.47;;
69057;SDS011;56128;37.534;-122.308;2024-02-21T05:17:13;25.55;;;7.72;;
69057;SDS011;56128;37.534;-122.308;2024-02-21T05:19:39;21.55;;;8.13;;
69057;SDS011;56128;37.534;-122.308;2024-02-21T05:22:05;23.10;;;8.55;;
69057;SDS011;56128;37.534;-122.308;2024-02-21T05:24:31;25.65;;;8.38;;
69057;SDS011;56128;37.534;-122.308;2024-02-21T05:26:57;21.55;;;7.60;;
69057;SDS011;56128;37.534;-122.308;2024-02-21T05:29:23;23.20;;;8.10;;
69057;SDS011;56128;37.534;-122.308;2024-02-21T05:34:19;21.77;;;8.68;;
69057;SDS011;56128;37.534;-122.308;2024-02-21T05:36:46;20.15;;;8.38;;
69057;SDS011;56128;37.534;-122.308;2024-02-21T05:39:13;19.85;;;9.00;;
69057;SDS011;56128;37.534;-122.308;2024-02-21T05:41:39;25.67;;;9.10;;
69057;SDS011;56128;37.534;-122.308;2024-02-21T05:44:06;24.92;;;9.27;;
69057;SDS011;56128;37.534;-122.308;2024-02-21T05:46:32;28.35;;;9.07;;
69057;SDS011;56128;37.534;-122.308;2024-02-21T05:48:58;28.95;;;10.48;;
69057;SDS011;56128;37.534;-122.308;2024-02-21T05:51:25;32.70;;;12.80;;
69057;SDS011;56128;37.534;-122.308;2024-02-21T05:53:51;26.65;;;11.23;;
69057;SDS011;56128;37.534;-122.308;2024-02-21T05:56:17;22.05;;;11.10;;
69057;SDS011;56128;37.534;-122.308;2024-02-21T05:58:44;29.80;;;9.80;;
69057;SDS011;56128;37.534;-122.308;2024-02-21T06:01:10;24.38;;;8.23;;
69057;SDS011;56128;37.534;-122.308;2024-02-21T06:03:37;20.60;;;8.13;;
69057;SDS011;56128;37.534;-122.308;2024-02-21T06:06:03;24.80;;;8.20;;
69057;SDS011;56128;37.534;-122.308;2024-02-21T06:08:32;25.48;;;7.97;;
69057;SDS011;56128;37.534;-122.308;2024-02-21T06:10:58;20.33;;;8.05;;
69057;SDS011;56128;37.534;-122.308;2024-02-21T06:13:25;20.30;;;7.35;;
69057;SDS011;56128;37.534;-122.308;2024-02-21T06:15:51;18.45;;;7.97;;
69057;SDS011;56128;37.534;-122.308;2024-02-21T06:18:17;24.17;;;10.73;;
69057;SDS011;56128;37.534;-122.308;2024-02-21T06:20:44;22.55;;;7.35;;
69057;SDS011;56128;37.534;-122.308;2024-02-21T06:23:11;29.45;;;6.88;;
69057;SDS011;56128;37.534;-122.308;2024-02-21T06:25:38;27.40;;;7.05;;
69057;SDS011;56128;37.534;-122.308;2024-02-21T06:28:05;21.67;;;6.38;;
69057;SDS011;56128;37.534;-122.308;2024-02-21T06:30:31;18.85;;;5.43;;
69057;SDS011;56128;37.534;-122.308;2024-02-21T06:32:57;20.17;;;4.88;;
69057;SDS011;56128;37.534;-122.308;2024-02-21T06:35:24;16.98;;;4.40;;
69057;SDS011;56128;37.534;-122.308;2024-02-21T06:37:51;24.05;;;5.20;;
69057;SDS011;56128;37.534;-122.308;2024-02-21T06:40:19;18.20;;;5.07;;
69057;SDS011;56128;37.534;-122.308;2024-02-21T06:42:49;22.15;;;5.63;;
69057;SDS011;56128;37.534;-122.308;2024-02-21T06:45:16;17.30;;;5.28;;
69057;SDS011;56128;37.534;-122.308;2024-02-21T06:47:42;21.40;;;5.65;;
69057;SDS011;56128;37.534;-122.308;2024-02-21T06:50:09;21.27;;;5.07;;
69057;SDS011;56128;37.534;-122.308;2024-02-21T06:52:38;22.40;;;5.07;;
69057;SDS011;56128;37.534;-122.308;2024-02-21T06:55:04;19.02;;;4.90;;
69057;SDS011;56128;37.534;-122.308;2024-02-21T06:57:30;23.45;;;5.40;;
69057;SDS011;56128;37.534;-122.308;2024-02-21T06:59:56;19.90;;;5.20;;
69057;SDS011;56128;37.534;-122.308;2024-02-21T07:02:22;24.50;;;5.80;;
69057;SDS011;56128;37.534;-122.308;2024-02-21T07:04:48;25.90;;;5.28;;
69057;SDS011;56128;37.534;-122.308;2024-02-21T07:07:14;24.83;;;5.47;;
69057;SDS011;56128;37.534;-122.308;2024-02-21T07:09:41;17.30;;;4.47;;
69057;SDS011;56128;37.534;-122.308;2024-02-21T07:12:07;15.52;;;4.80;;
69057;SDS011;56128;37.534;-122.308;2024-02-21T07:14:33;15.93;;;4.30;;
69057;SDS011;56128;37.534;-122.308;2024-02-21T07:16:59;22.08;;;5.07;;
69057;SDS011;56128;37.534;-122.308;2024-02-21T07:19:25;19.95;;;4.00;;
69057;SDS011;56128;37.534;-122.308;2024-02-21T07:21:51;20.92;;;4.32;;
69057;SDS011;56128;37.534;-122.308;2024-02-21T07:24:18;24.92;;;4.30;;
69057;SDS011;56128;37.534;-122.308;2024-02-21T07:26:44;23.02;;;3.80;;
69057;SDS011;56128;37.534;-122.308;2024-02-21T07:29:11;17.05;;;3.90;;
69057;SDS011;56128;37.534;-122.308;2024-02-21T07:31:43;25.50;;;4.20;;
69057;SDS011;56128;37.534;-122.308;2024-02-21T07:34:10;20.73;;;4.72;;
69057;SDS011;56128;37.534;-122.308;2024-02-21T07:36:36;25.58;;;7.85;;
69057;SDS011;56128;37.534;-122.308;2024-02-21T07:39:04;22.02;;;6.38;;
69057;SDS011;56128;37.534;-122.308;2024-02-21T07:41:30;22.55;;;4.70;;
69057;SDS011;56128;37.534;-122.308;2024-02-21T07:43:57;23.15;;;4.60;;
69057;SDS011;56128;37.534;-122.308;2024-02-21T07:46:23;21.00;;;4.35;;
69057;SDS011;56128;37.534;-122.308;2024-02-21T07:48:50;15.50;;;3.78;;
69057;SDS011;56128;37.534;-122.308;2024-02-21T07:51:16;27.23;;;4.45;;
69057;SDS011;56128;37.534;-122.308;2024-02-21T07:53:43;20.42;;;4.45;;
69057;SDS011;56128;37.534;-122.308;2024-02-21T07:56:14;22.60;;;3.45;;
69057;SDS011;56128;37.534;-122.308;2024-02-21T07:58:41;19.55;;;3.53;;
69057;SDS011;56128;37.534;-122.308;2024-02-21T08:01:08;17.08;;;3.58;;
69057;SDS011;56128;37.534;-122.308;2024-02-21T08:03:34;16.75;;;3.50;;
69057;SDS011;56128;37.534;-122.308;2024-02-21T08:06:01;16.92;;;3.80;;
69057;SDS011;56128;37.534;-122.308;2024-02-21T08:08:28;19.10;;;3.60;;
69057;SDS011;56128;37.534;-122.308;2024-02-21T08:10:55;17.15;;;3.15;;
69057;SDS011;56128;37.534;-122.308;2024-02-21T08:13:21;16.90;;;3.63;;
69057;SDS011;56128;37.534;-122.308;2024-02-21T08:15:47;24.38;;;4.20;;
69057;SDS011;56128;37.534;-122.308;2024-02-21T08:18:13;19.50;;;3.60;;
69057;SDS011;56128;37.534;-122.308;2024-02-21T08:20:39;14.38;;;3.20;;
69057;SDS011;56128;37.534;-122.308;2024-02-21T08:23:05;15.15;;;3.70;;
69057;SDS011;56128;37.534;-122.308;2024-02-21T08:25:32;19.27;;;3.90;;
69057;SDS011;56128;37.534;-122.308;2024-02-21T08:27:58;15.93;;;4.00;;
69057;SDS011;56128;37.534;-122.308;2024-02-21T08:30:25;17.40;;;3.53;;
69057;SDS011;56128;37.534;-122.308;2024-02-21T08:32:51;14.60;;;3.75;;
69057;SDS011;56128;37.534;-122.308;2024-02-21T08:35:19;16.63;;;3.35;;
69057;SDS011;56128;37.534;-122.308;2024-02-21T08:37:48;16.48;;;2.95;;
69057;SDS011;56128;37.534;-122.308;2024-02-21T08:40:14;14.02;;;3.08;;
69057;SDS011;56128;37.534;-122.308;2024-02-21T08:42:44;11.55;;;2.80;;
69057;SDS011;56128;37.534;-122.308;2024-02-21T08:45:11;13.40;;;3.38;;
69057;SDS011;56128;37.534;-122.308;2024-02-21T08:47:39;16.00;;;3.05;;
69057;SDS011;56128;37.534;-122.308;2024-02-21T08:50:06;15.98;;;3.00;;
69057;SDS011;56128;37.534;-122.308;2024-02-21T08:52:36;14.23;;;3.10;;
69057;SDS011;56128;37.534;-122.308;2024-02-21T08:55:02;10.80;;;2.40;;
69057;SDS011;56128;37.534;-122.308;2024-02-21T08:57:28;14.07;;;2.83;;
69057;SDS011;56128;37.534;-122.308;2024-02-21T08:59:55;11.75;;;2.50;;
69057;SDS011;56128;37.534;-122.308;2024-02-21T09:02:21;12.90;;;2.55;;
69057;SDS011;56128;37.534;-122.308;2024-02-21T09:04:47;8.85;;;2.20;;
69057;SDS011;56128;37.534;-122.308;2024-02-21T09:07:13;14.43;;;2.35;;
69057;SDS011;56128;37.534;-122.308;2024-02-21T09:09:39;11.75;;;2.42;;
69057;SDS011;56128;37.534;-122.308;2024-02-21T09:12:08;13.20;;;2.35;;
69057;SDS011;56128;37.534;-122.308;2024-02-21T09:14:37;9.50;;;2.40;;
69057;SDS011;56128;37.534;-122.308;2024-02-21T09:17:06;12.23;;;1.88;;
69057;SDS011;56128;37.534;-122.308;2024-02-21T09:19:33;11.85;;;2.30;;
69057;SDS011;56128;37.534;-122.308;2024-02-21T09:22:00;11.48;;;2.25;;
69057;SDS011;56128;37.534;-122.308;2024-02-21T09:24:27;12.60;;;2.58;;
69057;SDS011;56128;37.534;-122.308;2024-02-21T09:26:53;12.10;;;2.78;;
69057;SDS011;56128;37.534;-122.308;2024-02-21T09:29:19;13.55;;;2.50;;
69057;SDS011;56128;37.534;-122.308;2024-02-21T09:31:45;10.27;;;2.30;;
69057;SDS011;56128;37.534;-122.308;2024-02-21T09:34:13;13.50;;;2.30;;
69057;SDS011;56128;37.534;-122.308;2024-02-21T09:36:39;16.52;;;2.65;;
69057;SDS011;56128;37.534;-122.308;2024-02-21T09:39:05;8.55;;;2.53;;
69057;SDS011;56128;37.534;-122.308;2024-02-21T09:41:31;15.45;;;2.67;;
69057;SDS011;56128;37.534;-122.308;2024-02-21T09:44:05;13.57;;;2.85;;
69057;SDS011;56128;37.534;-122.308;2024-02-21T09:47:06;10.95;;;2.80;;
69057;SDS011;56128;37.534;-122.308;2024-02-21T09:49:30;18.77;;;2.80;;
69057;SDS011;56128;37.534;-122.308;2024-02-21T09:52:04;15.73;;;2.90;;
69057;SDS011;56128;37.534;-122.308;2024-02-21T09:54:34;11.68;;;2.70;;
69057;SDS011;56128;37.534;-122.308;2024-02-21T09:57:01;13.90;;;2.60;;
69057;SDS011;56128;37.534;-122.308;2024-02-21T09:59:28;19.60;;;2.85;;
69057;SDS011;56128;37.534;-122.308;2024-02-21T10:01:57;18.35;;;2.78;;
69057;SDS011;56128;37.534;-122.308;2024-02-21T10:04:25;17.17;;;2.85;;
69057;SDS011;56128;37.534;-122.308;2024-02-21T10:06:53;20.15;;;3.17;;
69057;SDS011;56128;37.534;-122.308;2024-02-21T10:09:20;16.35;;;2.70;;
69057;SDS011;56128;37.534;-122.308;2024-02-21T10:11:48;13.73;;;2.80;;
69057;SDS011;56128;37.534;-122.308;2024-02-21T10:14:16;19.55;;;3.25;;
69057;SDS011;56128;37.534;-122.308;2024-02-21T10:16:43;14.40;;;2.42;;
69057;SDS011;56128;37.534;-122.308;2024-02-21T10:19:17;15.65;;;2.88;;
69057;SDS011;56128;37.534;-122.308;2024-02-21T10:22:02;10.52;;;2.53;;
69057;SDS011;56128;37.534;-122.308;2024-02-21T10:24:29;10.93;;;2.60;;
69057;SDS011;56128;37.534;-122.308;2024-02-21T10:27:02;13.50;;;2.63;;
69057;SDS011;56128;37.534;-122.308;2024-02-21T10:29:30;17.00;;;3.05;;
69057;SDS011;56128;37.534;-122.308;2024-02-21T10:32:06;16.40;;;3.17;;
69057;SDS011;56128;37.534;-122.308;2024-02-21T10:34:34;17.58;;;3.03;;
69057;SDS011;56128;37.534;-122.308;2024-02-21T10:37:04;25.02;;;3.50;;
69057;SDS011;56128;37.534;-122.308;2024-02-21T10:39:32;19.55;;;3.30;;
69057;SDS011;56128;37.534;-122.308;2024-02-21T10:41:59;21.00;;;3.05;;
69057;SDS011;56128;37.534;-122.308;2024-02-21T10:44:34;18.13;;;3.30;;
69057;SDS011;56128;37.534;-122.308;2024-02-21T10:47:09;20.15;;;4.22;;
69057;SDS011;56128;37.534;-122.308;2024-02-21T10:49:38;17.65;;;3.33;;
69057;SDS011;56128;37.534;-122.308;2024-02-21T10:52:17;21.67;;;3.70;;
69057;SDS011;56128;37.534;-122.308;2024-02-21T10:55:15;16.58;;;3.03;;
69057;SDS011;56128;37.534;-122.308;2024-02-21T10:57:48;24.45;;;4.07;;
69057;SDS011;56128;37.534;-122.308;2024-02-21T11:00:16;23.55;;;3.83;;
69057;SDS011;56128;37.534;-122.308;2024-02-21T11:02:44;18.85;;;3.92;;
69057;SDS011;56128;37.534;-122.308;2024-02-21T11:05:12;26.25;;;3.88;;
69057;SDS011;56128;37.534;-122.308;2024-02-21T11:07:40;21.75;;;4.10;;
69057;SDS011;56128;37.534;-122.308;2024-02-21T11:10:19;23.20;;;3.92;;
69057;SDS011;56128;37.534;-122.308;2024-02-21T11:12:48;18.20;;;3.78;;
69057;SDS011;56128;37.534;-122.308;2024-02-21T11:15:14;28.67;;;4.13;;
69057;SDS011;56128;37.534;-122.308;2024-02-21T11:17:41;22.30;;;3.95;;
69057;SDS011;56128;37.534;-122.308;2024-02-21T11:20:13;24.33;;;4.40;;
69057;SDS011;56128;37.534;-122.308;2024-02-21T11:22:43;25.27;;;4.18;;
69057;SDS011;56128;37.534;-122.308;2024-02-21T11:25:09;25.25;;;4.40;;
69057;SDS011;56128;37.534;-122.308;2024-02-21T11:27:38;22.77;;;4.35;;
69057;SDS011;56128;37.534;-122.308;2024-02-21T11:30:11;21.92;;;5.00;;
69057;SDS011;56128;37.534;-122.308;2024-02-21T11:32:39;22.88;;;4.18;;
69057;SDS011;56128;37.534;-122.308;2024-02-21T11:35:06;20.38;;;3.88;;
69057;SDS011;56128;37.534;-122.308;2024-02-21T11:37:34;27.30;;;4.25;;
69057;SDS011;56128;37.534;-122.308;2024-02-21T11:40:05;25.92;;;4.85;;
69057;SDS011;56128;37.534;-122.308;2024-02-21T11:42:35;23.45;;;5.18;;
69057;SDS011;56128;37.534;-122.308;2024-02-21T11:45:01;27.05;;;4.18;;
69057;SDS011;56128;37.534;-122.308;2024-02-21T11:47:30;26.50;;;4.88;;
69057;SDS011;56128;37.534;-122.308;2024-02-21T11:49:56;26.80;;;5.00;;
69057;SDS011;56128;37.534;-122.308;2024-02-21T11:52:24;28.40;;;5.65;;
69057;SDS011;56128;37.534;-122.308;2024-02-21T11:54:51;26.77;;;5.05;;
69057;SDS011;56128;37.534;-122.308;2024-02-21T11:57:18;24.88;;;5.57;;
69057;SDS011;56128;37.534;-122.308;2024-02-21T11:59:44;30.58;;;5.20;;
69057;SDS011;56128;37.534;-122.308;2024-02-21T12:02:12;33.20;;;4.95;;
69057;SDS011;56128;37.534;-122.308;2024-02-21T12:04:39;22.58;;;5.22;;
69057;SDS011;56128;37.534;-122.308;2024-02-21T12:07:07;28.30;;;6.00;;
69057;SDS011;56128;37.534;-122.308;2024-02-21T12:09:34;35.75;;;5.50;;
69057;SDS011;56128;37.534;-122.308;2024-02-21T12:12:01;30.90;;;5.68;;
69057;SDS011;56128;37.534;-122.308;2024-02-21T12:14:32;29.95;;;5.85;;
69057;SDS011;56128;37.534;-122.308;2024-02-21T12:17:00;31.98;;;7.57;;
69057;SDS011;56128;37.534;-122.308;2024-02-21T12:19:29;26.83;;;6.20;;
69057;SDS011;56128;37.534;-122.308;2024-02-21T12:21:59;33.17;;;6.50;;
69057;SDS011;56128;37.534;-122.308;2024-02-21T12:24:26;24.17;;;5.07;;
69057;SDS011;56128;37.534;-122.308;2024-02-21T12:26:54;24.95;;;5.72;;
69057;SDS011;56128;37.534;-122.308;2024-02-21T12:29:25;28.90;;;5.55;;
69057;SDS011;56128;37.534;-122.308;2024-02-21T12:31:51;24.92;;;5.00;;
69057;SDS011;56128;37.534;-122.308;2024-02-21T12:34:20;24.33;;;4.75;;
69057;SDS011;56128;37.534;-122.308;2024-02-21T12:36:47;20.58;;;4.05;;
69057;SDS011;56128;37.534;-122.308;2024-02-21T12:39:13;27.40;;;4.47;;
69057;SDS011;56128;37.534;-122.308;2024-02-21T12:41:40;25.13;;;4.80;;
69057;SDS011;56128;37.534;-122.308;2024-02-21T12:44:08;24.15;;;4.22;;
69057;SDS011;56128;37.534;-122.308;2024-02-21T12:46:36;25.45;;;3.92;;
69057;SDS011;56128;37.534;-122.308;2024-02-21T12:49:03;21.55;;;4.20;;
69057;SDS011;56128;37.534;-122.308;2024-02-21T12:51:33;26.45;;;4.75;;
69057;SDS011;56128;37.534;-122.308;2024-02-21T12:54:00;24.35;;;4.32;;
69057;SDS011;56128;37.534;-122.308;2024-02-21T12:56:28;24.33;;;4.38;;
69057;SDS011;56128;37.534;-122.308;2024-02-21T12:58:57;28.88;;;4.60;;
69057;SDS011;56128;37.534;-122.308;2024-02-21T13:01:23;25.17;;;4.45;;
69057;SDS011;56128;37.534;-122.308;2024-02-21T13:03:49;27.30;;;4.43;;
69057;SDS011;56128;37.534;-122.308;2024-02-21T13:06:16;20.60;;;4.30;;
69057;SDS011;56128;37.534;-122.308;2024-02-21T13:08:42;25.50;;;4.20;;
69057;SDS011;56128;37.534;-122.308;2024-02-21T13:11:09;29.95;;;4.43;;
69057;SDS011;56128;37.534;-122.308;2024-02-21T13:13:36;25.65;;;4.75;;
69057;SDS011;56128;37.534;-122.308;2024-02-21T13:16:03;26.90;;;4.13;;
69057;SDS011;56128;37.534;-122.308;2024-02-21T13:18:30;30.25;;;4.22;;
69057;SDS011;56128;37.534;-122.308;2024-02-21T13:20:57;23.98;;;4.13;;
69057;SDS011;56128;37.534;-122.308;2024-02-21T13:23:24;24.05;;;4.07;;
69057;SDS011;56128;37.534;-122.308;2024-02-21T13:25:50;24.88;;;4.28;;
69057;SDS011;56128;37.534;-122.308;2024-02-21T13:28:16;17.98;;;4.10;;
69057;SDS011;56128;37.534;-122.308;2024-02-21T13:30:42;24.25;;;4.53;;
69057;SDS011;56128;37.534;-122.308;2024-02-21T13:33:09;22.88;;;4.03;;
69057;SDS011;56128;37.534;-122.308;2024-02-21T13:35:35;24.67;;;4.22;;
69057;SDS011;56128;37.534;-122.308;2024-02-21T13:38:02;20.63;;;3.72;;
69057;SDS011;56128;37.534;-122.308;2024-02-21T13:40:29;19.92;;;3.83;;
69057;SDS011;56128;37.534;-122.308;2024-02-21T13:42:55;19.75;;;3.97;;
69057;SDS011;56128;37.534;-122.308;2024-02-21T13:45:21;21.92;;;4.40;;
69057;SDS011;56128;37.534;-122.308;2024-02-21T13:47:47;19.95;;;4.70;;
69057;SDS011;56128;37.534;-122.308;2024-02-21T13:50:14;28.65;;;4.07;;
69057;SDS011;56128;37.534;-122.308;2024-02-21T13:52:40;20.77;;;4.78;;
69057;SDS011;56128;37.534;-122.308;2024-02-21T13:55:07;23.38;;;4.10;;
69057;SDS011;56128;37.534;-122.308;2024-02-21T13:57:36;21.98;;;4.30;;
69057;SDS011;56128;37.534;-122.308;2024-02-21T14:00:03;26.35;;;4.10;;
69057;SDS011;56128;37.534;-122.308;2024-02-21T14:02:30;23.58;;;4.15;;
69057;SDS011;56128;37.534;-122.308;2024-02-21T14:04:56;18.85;;;3.47;;